createdAt,value
2018-08-09T00:02:00.706Z,8.70
2018-08-09T00:04:28.430Z,8.77
2018-08-09T00:06:56.041Z,9.33
2018-08-09T00:09:23.736Z,8.50
2018-08-09T00:11:51.445Z,9.37
2018-08-09T00:14:19.183Z,9.57
2018-08-09T00:16:46.844Z,9.37
2018-08-09T00:19:14.536Z,8.57
2018-08-09T00:21:42.227Z,8.60
2018-08-09T00:24:09.986Z,9.87
2018-08-09T00:26:37.618Z,10.07
2018-08-09T00:29:05.260Z,9.80
2018-08-09T00:31:33.009Z,9.53
2018-08-09T00:34:00.736Z,10.00
2018-08-09T00:36:28.635Z,9.00
2018-08-09T00:38:56.229Z,10.20
2018-08-09T00:41:24.116Z,10.10
2018-08-09T00:43:51.976Z,9.23
2018-08-09T00:46:20.025Z,11.20
2018-08-09T00:48:49.982Z,9.57
2018-08-09T00:51:17.962Z,10.97
2018-08-09T00:53:45.658Z,9.33
2018-08-09T00:56:13.623Z,9.73
2018-08-09T00:58:41.445Z,9.03
2018-08-09T01:01:09.133Z,9.80
2018-08-09T01:03:36.836Z,9.40
2018-08-09T01:06:04.646Z,9.50
2018-08-09T01:08:32.375Z,9.47
2018-08-09T01:11:00.170Z,10.30
2018-08-09T01:13:27.873Z,10.97
2018-08-09T01:15:55.604Z,10.33
2018-08-09T01:18:23.375Z,9.80
2018-08-09T01:20:51.186Z,10.27
2018-08-09T01:23:19.077Z,10.27
2018-08-09T01:25:46.809Z,10.67
2018-08-09T01:28:14.923Z,10.00
2018-08-09T01:30:42.591Z,10.80
2018-08-09T01:33:10.184Z,10.70
2018-08-09T01:35:37.937Z,10.43
2018-08-09T01:38:05.715Z,10.90
2018-08-09T01:40:33.502Z,11.20
2018-08-09T01:43:12.514Z,11.40
2018-08-09T01:45:40.118Z,11.57
2018-08-09T01:48:07.817Z,10.50
2018-08-09T01:50:35.582Z,12.80
2018-08-09T01:53:03.379Z,11.30
2018-08-09T01:55:31.057Z,11.87
2018-08-09T01:57:58.840Z,11.83
2018-08-09T02:00:26.609Z,11.63
2018-08-09T02:02:54.267Z,12.43
2018-08-09T02:05:21.962Z,11.40
2018-08-09T02:07:49.685Z,12.77
2018-08-09T02:10:17.447Z,11.13
2018-08-09T02:12:45.040Z,12.10
2018-08-09T02:15:12.751Z,12.37
2018-08-09T02:17:40.481Z,11.97
2018-08-09T02:20:08.267Z,13.40
2018-08-09T02:22:35.925Z,11.00
2018-08-09T02:25:03.553Z,11.23
2018-08-09T02:27:31.212Z,11.33
2018-08-09T02:29:58.766Z,12.10
2018-08-09T02:32:26.435Z,12.10
2018-08-09T02:34:54.177Z,13.10
2018-08-09T02:37:21.882Z,11.00
2018-08-09T02:39:49.486Z,11.63
2018-08-09T02:42:17.210Z,11.17
2018-08-09T02:44:44.950Z,11.73
2018-08-09T02:47:12.742Z,12.57
2018-08-09T02:49:40.501Z,11.70
2018-08-09T02:52:08.690Z,11.60
2018-08-09T02:54:36.471Z,12.00
2018-08-09T02:57:04.120Z,11.13
2018-08-09T02:59:31.827Z,12.27
2018-08-09T03:01:59.604Z,12.70
2018-08-09T03:04:27.274Z,12.37
2018-08-09T03:06:54.979Z,12.80
2018-08-09T03:09:22.795Z,12.27
2018-08-09T03:11:50.546Z,12.20
2018-08-09T03:14:18.353Z,13.87
2018-08-09T03:16:46.186Z,11.33
2018-08-09T03:19:13.962Z,14.00
2018-08-09T03:21:41.735Z,12.37
2018-08-09T03:24:09.431Z,12.03
2018-08-09T03:26:37.282Z,11.83
2018-08-09T03:29:04.893Z,12.73
2018-08-09T03:31:32.576Z,14.07
2018-08-09T03:34:00.322Z,12.00
2018-08-09T03:36:28.086Z,12.47
2018-08-09T03:38:55.810Z,12.57
2018-08-09T03:41:23.503Z,12.23
2018-08-09T03:43:51.231Z,10.77
2018-08-09T03:46:18.977Z,11.50
2018-08-09T03:48:58.438Z,11.10
2018-08-09T03:51:32.299Z,12.13
2018-08-09T03:54:00.143Z,12.23
2018-08-09T03:56:28.171Z,9.73
2018-08-09T03:58:55.936Z,13.83
2018-08-09T04:01:23.688Z,11.97
2018-08-09T04:03:51.313Z,10.60
2018-08-09T04:06:19.128Z,11.87
2018-08-09T04:08:47.714Z,10.97
2018-08-09T04:11:15.427Z,9.40
2018-08-09T04:13:43.039Z,9.50
2018-08-09T04:16:10.855Z,10.03
2018-08-09T04:18:38.568Z,10.70
2018-08-09T04:21:06.163Z,9.73
2018-08-09T04:23:33.800Z,11.60
2018-08-09T04:26:01.685Z,10.40
2018-08-09T04:28:29.443Z,10.47
2018-08-09T04:30:57.159Z,9.67
2018-08-09T04:33:24.768Z,9.20
2018-08-09T04:35:53.212Z,9.13
2018-08-09T04:38:21.063Z,9.77
2018-08-09T04:40:48.739Z,7.80
2018-08-09T04:43:16.524Z,8.70
2018-08-09T04:45:44.280Z,8.17
2018-08-09T04:48:12.091Z,8.60
2018-08-09T04:50:39.728Z,8.27
2018-08-09T04:53:07.428Z,8.77
2018-08-09T04:55:35.117Z,7.97
2018-08-09T04:58:02.889Z,9.10
2018-08-09T05:00:30.622Z,9.43
2018-08-09T05:02:58.242Z,8.03
2018-08-09T05:05:25.998Z,8.00
2018-08-09T05:07:53.706Z,8.63
2018-08-09T05:10:21.359Z,8.00
2018-08-09T05:12:49.196Z,7.40
2018-08-09T05:15:16.882Z,7.80
2018-08-09T05:17:44.691Z,7.73
2018-08-09T05:20:12.310Z,8.80
2018-08-09T05:22:40.054Z,9.80
2018-08-09T05:25:07.726Z,7.93
2018-08-09T05:27:35.373Z,7.37
2018-08-09T05:30:06.217Z,6.50
2018-08-09T05:32:33.957Z,6.40
2018-08-09T05:35:01.630Z,6.67
2018-08-09T05:37:33.011Z,7.30
2018-08-09T05:40:03.234Z,9.33
2018-08-09T05:42:30.794Z,8.50
2018-08-09T05:44:58.380Z,5.30
2018-08-09T05:47:25.979Z,6.00
2018-08-09T05:49:53.731Z,6.07
2018-08-09T05:52:21.363Z,5.00
2018-08-09T05:54:49.103Z,5.27
2018-08-09T05:57:16.748Z,5.20
2018-08-09T05:59:44.761Z,6.47
2018-08-09T06:02:12.577Z,5.93
2018-08-09T06:04:40.359Z,5.77
2018-08-09T06:07:08.184Z,6.10
2018-08-09T06:09:35.876Z,5.80
2018-08-09T06:12:03.747Z,4.77
2018-08-09T06:14:31.822Z,5.37
2018-08-09T06:16:59.642Z,5.00
2018-08-09T06:19:27.281Z,5.70
2018-08-09T06:21:55.238Z,4.77
2018-08-09T06:24:22.836Z,4.67
2018-08-09T06:26:50.567Z,4.80
2018-08-09T06:29:18.384Z,4.90
2018-08-09T06:31:46.019Z,4.23
2018-08-09T06:34:13.716Z,4.40
2018-08-09T06:36:41.350Z,4.60
2018-08-09T06:39:09.106Z,4.47
2018-08-09T06:41:37.316Z,3.93
2018-08-09T06:44:05.194Z,3.93
2018-08-09T06:46:32.964Z,5.37
2018-08-09T06:49:00.887Z,4.63
2018-08-09T06:51:28.760Z,4.33
2018-08-09T06:53:56.405Z,3.67
2018-08-09T06:56:24.159Z,5.20
2018-08-09T06:58:51.938Z,4.57
2018-08-09T07:01:19.635Z,4.90
2018-08-09T07:03:47.319Z,4.00
2018-08-09T07:06:15.154Z,5.53
2018-08-09T07:08:42.897Z,4.17
2018-08-09T07:11:10.579Z,3.90
2018-08-09T07:13:38.342Z,4.10
2018-08-09T07:16:06.313Z,4.20
2018-08-09T07:18:34.157Z,3.57
2018-08-09T07:21:01.907Z,4.93
2018-08-09T07:23:29.698Z,4.10
2018-08-09T07:25:58.145Z,4.50
2018-08-09T07:28:25.984Z,4.67
2018-08-09T07:30:53.690Z,4.13
2018-08-09T07:33:21.322Z,4.50
2018-08-09T07:35:49.185Z,5.07
2018-08-09T07:38:16.802Z,5.10
2018-08-09T07:40:44.670Z,5.40
2018-08-09T07:43:12.393Z,4.80
2018-08-09T07:45:40.083Z,4.43
2018-08-09T07:48:08.485Z,4.40
2018-08-09T07:50:36.187Z,3.30
2018-08-09T07:53:03.824Z,4.23
2018-08-09T07:55:31.582Z,3.67
2018-08-09T07:57:59.444Z,3.73
2018-08-09T08:00:27.177Z,3.73
2018-08-09T08:02:55.013Z,3.80
2018-08-09T08:05:22.760Z,3.73
2018-08-09T08:07:50.977Z,3.67
2018-08-09T08:10:19.149Z,3.70
2018-08-09T08:12:47.006Z,3.40
2018-08-09T08:15:16.562Z,3.70
2018-08-09T08:17:44.382Z,3.00
2018-08-09T08:20:12.150Z,3.93
2018-08-09T08:22:40.034Z,2.90
2018-08-09T08:25:08.065Z,3.20
2018-08-09T08:27:35.799Z,3.83
2018-08-09T08:30:06.769Z,3.47
2018-08-09T08:32:34.755Z,3.60
2018-08-09T08:35:03.170Z,3.20
2018-08-09T08:37:30.795Z,5.10
2018-08-09T08:39:58.965Z,3.60
2018-08-09T08:42:26.866Z,3.80
2018-08-09T08:44:54.486Z,3.30
2018-08-09T08:47:22.375Z,3.30
2018-08-09T08:49:50.280Z,3.67
2018-08-09T08:52:18.743Z,3.47
2018-08-09T08:54:47.139Z,3.53
2018-08-09T08:57:15.088Z,4.37
2018-08-09T08:59:42.958Z,3.63
2018-08-09T09:02:10.794Z,3.73
2018-08-09T09:04:38.711Z,3.77
2018-08-09T09:07:06.622Z,3.27
2018-08-09T09:09:34.254Z,3.53
2018-08-09T09:12:01.903Z,3.60
2018-08-09T09:14:29.686Z,3.10
2018-08-09T09:16:57.387Z,3.43
2018-08-09T09:19:25.042Z,3.63
2018-08-09T09:21:52.701Z,3.27
2018-08-09T09:24:21.571Z,3.40
2018-08-09T09:26:49.212Z,3.50
2018-08-09T09:29:16.976Z,3.30
2018-08-09T09:31:44.637Z,3.57
2018-08-09T09:34:12.492Z,3.57
2018-08-09T09:36:40.188Z,3.37
2018-08-09T09:39:09.228Z,4.30
2018-08-09T09:41:37.659Z,3.07
2018-08-09T09:44:05.644Z,3.07
2018-08-09T09:46:33.281Z,3.40
2018-08-09T09:49:01.932Z,3.40
2018-08-09T09:51:29.575Z,3.03
2018-08-09T09:53:57.476Z,3.27
2018-08-09T09:56:25.245Z,3.17
2018-08-09T09:58:55.225Z,3.70
2018-08-09T10:01:28.495Z,3.23
2018-08-09T10:03:56.382Z,3.50
2018-08-09T10:06:24.322Z,3.20
2018-08-09T10:08:52.380Z,3.47
2018-08-09T10:11:20.293Z,3.23
2018-08-09T10:13:48.087Z,3.67
2018-08-09T10:16:15.853Z,2.80
2018-08-09T10:18:43.695Z,3.50
2018-08-09T10:21:11.411Z,3.27
2018-08-09T10:23:39.253Z,2.70
2018-08-09T10:26:07.046Z,3.70
2018-08-09T10:28:34.684Z,3.07
2018-08-09T10:31:02.453Z,3.40
2018-08-09T10:33:30.168Z,2.97
2018-08-09T10:35:57.877Z,3.10
2018-08-09T10:38:25.635Z,3.73
2018-08-09T10:40:53.490Z,3.50
2018-08-09T10:43:21.274Z,3.00
2018-08-09T10:45:48.970Z,3.03
2018-08-09T10:48:16.725Z,3.70
2018-08-09T10:50:44.474Z,3.20
2018-08-09T10:53:12.262Z,3.10
2018-08-09T10:55:39.898Z,3.07
2018-08-09T10:58:07.458Z,3.73
2018-08-09T11:00:35.083Z,3.60
2018-08-09T11:03:02.866Z,3.33
2018-08-09T11:05:30.587Z,3.40
2018-08-09T11:07:58.376Z,3.80
2018-08-09T11:10:26.346Z,3.47
2018-08-09T11:12:54.120Z,3.70
2018-08-09T11:15:22.440Z,3.37
2018-08-09T11:17:50.193Z,3.43
2018-08-09T11:20:17.911Z,3.87
2018-08-09T11:22:45.771Z,4.17
2018-08-09T11:25:13.945Z,4.10
2018-08-09T11:27:41.842Z,4.23
2018-08-09T11:30:09.467Z,3.83
2018-08-09T11:32:37.263Z,3.13
2018-08-09T11:35:05.324Z,3.47
2018-08-09T11:37:33.011Z,3.90
2018-08-09T11:40:00.732Z,3.20
2018-08-09T11:42:28.736Z,3.70
2018-08-09T11:44:56.616Z,3.47
2018-08-09T11:47:24.374Z,3.03
2018-08-09T11:49:54.234Z,3.40
2018-08-09T11:52:21.931Z,3.83
2018-08-09T11:54:50.282Z,3.70
2018-08-09T11:57:17.867Z,3.53
2018-08-09T11:59:45.739Z,3.43
2018-08-09T12:02:13.779Z,3.40
2018-08-09T12:04:41.436Z,3.70
2018-08-09T12:07:09.575Z,3.47
2018-08-09T12:09:37.191Z,3.60
2018-08-09T12:12:04.937Z,3.00
2018-08-09T12:14:32.595Z,4.00
2018-08-09T12:17:00.291Z,4.27
2018-08-09T12:19:28.218Z,4.30
2018-08-09T12:21:56.002Z,3.90
2018-08-09T12:24:23.877Z,4.20
2018-08-09T12:26:51.790Z,3.73
2018-08-09T12:29:19.577Z,4.07
2018-08-09T12:31:47.268Z,3.50
2018-08-09T12:34:14.898Z,3.70
2018-08-09T12:36:42.613Z,4.57
2018-08-09T12:39:12.280Z,3.70
2018-08-09T12:41:40.418Z,4.13
2018-08-09T12:44:15.769Z,3.47
2018-08-09T12:46:43.483Z,3.50
2018-08-09T12:49:12.446Z,4.03
2018-08-09T12:51:40.250Z,4.00
2018-08-09T12:54:08.098Z,4.77
2018-08-09T12:56:35.873Z,4.47
2018-08-09T12:59:03.778Z,4.70
2018-08-09T13:01:31.632Z,4.60
2018-08-09T13:03:59.850Z,4.03
2018-08-09T13:06:27.639Z,4.57
2018-08-09T13:08:55.435Z,4.13
2018-08-09T13:11:23.036Z,4.30
2018-08-09T13:13:51.204Z,4.63
2018-08-09T13:16:20.722Z,4.70
2018-08-09T13:18:50.912Z,3.87
2018-08-09T13:21:18.767Z,5.33
2018-08-09T13:23:46.982Z,4.30
2018-08-09T13:26:14.714Z,4.17
2018-08-09T13:28:43.566Z,5.10
2018-08-09T13:31:11.591Z,4.10
2018-08-09T13:33:39.853Z,4.50
2018-08-09T13:36:07.776Z,4.50
2018-08-09T13:38:35.461Z,5.10
2018-08-09T13:41:03.511Z,4.33
2018-08-09T13:43:31.825Z,4.33
2018-08-09T13:45:59.848Z,4.30
2018-08-09T13:48:27.727Z,4.27
2018-08-09T13:50:55.462Z,3.90
2018-08-09T13:53:23.641Z,4.50
2018-08-09T13:55:52.057Z,4.97
2018-08-09T13:58:20.010Z,3.93
2018-08-09T14:00:47.699Z,5.40
2018-08-09T14:03:15.485Z,4.07
2018-08-09T14:05:43.373Z,4.53
2018-08-09T14:08:11.198Z,4.40
2018-08-09T14:10:39.372Z,4.80
2018-08-09T14:13:07.166Z,4.13
2018-08-09T14:15:35.647Z,4.23
2018-08-09T14:18:04.840Z,5.00
2018-08-09T14:20:32.755Z,4.67
2018-08-09T14:23:00.648Z,4.60
2018-08-09T14:25:28.717Z,4.90
2018-08-09T14:27:56.612Z,4.87
2018-08-09T14:30:26.427Z,4.17
2018-08-09T14:32:55.042Z,4.90
2018-08-09T14:35:23.365Z,5.27
2018-08-09T14:37:51.622Z,5.23
2018-08-09T14:40:21.038Z,4.93
2018-08-09T14:42:49.067Z,5.03
2018-08-09T14:45:16.818Z,4.17
2018-08-09T14:47:51.252Z,4.90
2018-08-09T14:50:18.909Z,5.00
2018-08-09T14:52:46.844Z,4.80
2018-08-09T14:55:14.736Z,4.70
2018-08-09T14:57:42.845Z,5.37
2018-08-09T15:00:12.998Z,4.80
2018-08-09T15:02:40.855Z,4.87
2018-08-09T15:05:08.535Z,4.80
2018-08-09T15:07:36.404Z,4.13
2018-08-09T15:10:04.218Z,4.27
2018-08-09T15:12:32.102Z,4.70
2018-08-09T15:15:00.056Z,4.80
2018-08-09T15:17:27.959Z,4.47
2018-08-09T15:19:55.924Z,6.00
2018-08-09T15:22:25.063Z,4.93
2018-08-09T15:24:54.542Z,4.10
2018-08-09T15:27:24.518Z,4.43
2018-08-09T15:29:54.630Z,4.77
2018-08-09T15:32:23.451Z,4.50
2018-08-09T15:34:53.578Z,5.00
2018-08-09T15:37:22.939Z,7.10
2018-08-09T15:39:52.470Z,5.50
2018-08-09T15:42:20.374Z,4.70
2018-08-09T15:44:48.815Z,4.97
2018-08-09T15:47:17.290Z,4.67
2018-08-09T15:49:45.862Z,4.90
2018-08-09T15:52:19.679Z,4.70
2018-08-09T15:54:47.521Z,4.23
2018-08-09T15:57:15.444Z,5.37
2018-08-09T15:59:44.773Z,4.97
2018-08-09T16:02:13.266Z,5.20
2018-08-09T16:04:43.167Z,4.53
2018-08-09T16:07:12.675Z,5.17
2018-08-09T16:09:40.495Z,5.53
2018-08-09T16:12:08.211Z,5.97
2018-08-09T16:14:36.841Z,6.87
2018-08-09T16:17:04.635Z,5.70
2018-08-09T16:19:32.394Z,5.07
2018-08-09T16:24:28.095Z,5.33
2018-08-09T16:26:56.086Z,5.10
2018-08-09T17:16:05.380Z,5.87
2018-08-09T17:18:33.710Z,6.90
2018-08-09T17:21:01.983Z,6.90
2018-08-09T17:23:30.768Z,6.20
2018-08-09T17:25:58.585Z,7.50
2018-08-09T17:28:26.304Z,6.87
2018-08-09T17:30:53.930Z,6.90
2018-08-09T17:33:21.927Z,7.63
2018-08-09T17:35:51.292Z,8.30
2018-08-09T17:38:20.976Z,6.83
2018-08-09T17:40:49.475Z,7.13
2018-08-09T17:43:20.843Z,7.50
2018-08-09T17:45:49.053Z,9.17
2018-08-09T17:48:18.799Z,7.70
2018-08-09T17:50:47.537Z,8.10
2018-08-09T17:53:21.993Z,7.97
2018-08-09T17:55:50.638Z,7.43
2018-08-09T17:58:18.813Z,7.87
2018-08-09T18:00:46.641Z,8.47
2018-08-09T18:03:14.578Z,7.67
2018-08-09T18:05:43.187Z,7.80
2018-08-09T18:08:12.293Z,8.20
2018-08-09T18:10:40.151Z,8.77
2018-08-09T18:13:07.846Z,8.70
2018-08-09T18:15:35.571Z,7.80
2018-08-09T18:18:03.567Z,8.33
2018-08-09T18:20:35.243Z,8.53
2018-08-09T18:23:03.066Z,9.00
2018-08-09T18:25:31.339Z,7.60
2018-08-09T18:27:59.013Z,8.97
2018-08-09T18:30:27.039Z,8.63
2018-08-09T18:32:55.407Z,8.87
2018-08-09T18:35:24.060Z,9.10
2018-08-09T18:37:51.722Z,8.93
2018-08-09T18:40:20.849Z,9.33
2018-08-09T18:42:48.520Z,8.80
2018-08-09T18:45:17.637Z,8.87
2018-08-09T18:47:45.533Z,8.07
2018-08-09T18:50:22.297Z,9.13
2018-08-09T18:52:59.358Z,7.97
2018-08-09T18:55:28.412Z,8.93
2018-08-09T18:57:56.767Z,8.20
2018-08-09T19:00:26.316Z,9.00
2018-08-09T19:02:56.008Z,8.90
2018-08-09T19:05:26.697Z,8.73
2018-08-09T19:08:00.066Z,9.73
2018-08-09T19:10:30.326Z,8.40
2018-08-09T19:12:58.299Z,9.23
2018-08-09T19:15:33.235Z,8.93
2018-08-09T19:18:01.933Z,9.07
2018-08-09T19:20:31.911Z,9.40
2018-08-09T19:23:01.797Z,8.87
2018-08-09T19:25:31.972Z,8.97
2018-08-09T19:28:01.446Z,9.13
2018-08-09T19:30:30.116Z,9.93
2018-08-09T19:32:58.635Z,10.10
2018-08-09T19:35:27.285Z,10.87
2018-08-09T19:37:55.293Z,10.63
2018-08-09T19:40:29.473Z,11.80
2018-08-09T19:42:58.542Z,11.43
2018-08-09T19:45:26.523Z,10.60
2018-08-09T19:47:54.173Z,10.67
2018-08-09T19:50:23.073Z,11.60
2018-08-09T19:52:51.328Z,7.47
2018-08-09T19:55:20.920Z,10.57
2018-08-09T19:57:49.352Z,10.17
2018-08-09T20:00:17.863Z,9.73
2018-08-09T20:02:46.631Z,9.77
2018-08-09T20:05:14.832Z,9.10
2018-08-09T20:07:44.568Z,9.03
2018-08-09T20:10:13.030Z,10.20
2018-08-09T20:12:41.557Z,10.10
2018-08-09T20:15:12.010Z,10.30
2018-08-09T20:17:40.051Z,10.87
2018-08-09T20:20:08.647Z,10.93
2018-08-09T20:22:36.636Z,9.70
2018-08-09T20:25:05.773Z,12.13
2018-08-09T20:27:33.696Z,12.67
2018-08-09T20:30:01.609Z,12.80
2018-08-09T20:32:29.432Z,11.20
2018-08-09T20:34:57.469Z,11.33
2018-08-09T20:37:25.478Z,13.70
2018-08-09T20:39:53.311Z,11.17
2018-08-09T20:42:21.197Z,10.30
2018-08-09T20:44:49.052Z,8.40
2018-08-09T20:47:16.977Z,8.53
2018-08-09T20:49:45.004Z,7.60
2018-08-09T20:52:12.975Z,9.27
2018-08-09T20:54:40.899Z,10.17
2018-08-09T20:57:08.727Z,8.17
2018-08-09T20:59:36.564Z,9.67
2018-08-09T21:02:04.980Z,10.13
2018-08-09T21:04:33.050Z,10.73
2018-08-09T21:07:00.847Z,10.60
2018-08-09T21:09:28.575Z,12.80
2018-08-09T21:11:56.360Z,11.90
2018-08-09T21:14:24.026Z,12.93
2018-08-09T21:16:51.846Z,12.20
2018-08-09T21:19:20.431Z,14.57
2018-08-09T21:21:48.802Z,13.47
2018-08-09T21:24:16.456Z,13.30
2018-08-09T21:26:44.494Z,13.93
2018-08-09T21:29:12.159Z,13.33
2018-08-09T21:31:39.891Z,13.53
2018-08-09T21:34:07.934Z,13.80
2018-08-09T21:36:35.848Z,13.43
2018-08-09T21:39:05.622Z,13.97
2018-08-09T21:41:33.433Z,13.73
2018-08-09T21:44:01.117Z,14.07
2018-08-09T21:46:28.720Z,16.20
2018-08-09T21:48:56.539Z,13.40
2018-08-09T21:51:24.440Z,11.87
2018-08-09T21:53:52.278Z,12.60
2018-08-09T21:56:20.050Z,13.40
2018-08-09T21:58:47.805Z,12.80
2018-08-09T22:01:15.730Z,12.27
2018-08-09T22:03:43.751Z,12.30
2018-08-09T22:06:17.365Z,11.97
2018-08-09T22:08:50.646Z,11.10
2018-08-09T22:11:23.950Z,11.87
2018-08-09T22:13:57.605Z,10.70
2018-08-09T22:16:31.312Z,10.40
2018-08-09T22:19:04.871Z,9.30
2018-08-09T22:21:38.173Z,9.70
2018-08-09T22:24:05.806Z,8.80
2018-08-09T22:26:33.869Z,9.23
2018-08-09T22:29:01.619Z,10.27
2018-08-09T22:31:29.657Z,9.80
2018-08-09T22:33:57.561Z,10.27
2018-08-09T22:36:26.627Z,8.70
2018-08-09T22:38:56.341Z,9.60
2018-08-09T22:41:24.484Z,9.80
2018-08-09T22:43:52.513Z,10.17
2018-08-09T22:46:20.558Z,10.60
2018-08-09T22:48:48.733Z,9.83
2018-08-09T22:51:16.853Z,9.57
2018-08-09T22:53:44.647Z,10.10
2018-08-09T22:56:12.874Z,9.20
2018-08-09T22:58:41.133Z,9.97
2018-08-09T23:01:09.317Z,11.10
2018-08-09T23:03:46.113Z,10.47
2018-08-09T23:06:15.359Z,10.83
2018-08-09T23:08:43.046Z,11.30
2018-08-09T23:11:10.675Z,11.53
2018-08-09T23:13:38.301Z,11.37
2018-08-09T23:16:05.964Z,10.90
2018-08-09T23:18:33.791Z,12.27
2018-08-09T23:21:01.500Z,11.97
2018-08-09T23:23:29.322Z,11.23
2018-08-09T23:25:57.070Z,12.60
2018-08-09T23:28:25.494Z,12.70
2018-08-09T23:30:53.233Z,13.30
2018-08-09T23:33:23.762Z,13.60
2018-08-09T23:35:51.622Z,11.97
2018-08-09T23:38:19.347Z,12.80
2018-08-09T23:40:47.054Z,12.97
2018-08-09T23:43:14.874Z,12.30
2018-08-09T23:45:42.676Z,10.50
2018-08-09T23:48:10.237Z,12.83
2018-08-09T23:50:38.103Z,13.67
2018-08-09T23:53:06.060Z,12.70
2018-08-09T23:55:33.846Z,12.97
2018-08-09T23:58:01.733Z,13.20
